Time;durP1;ratioP1;P1;durP2;ratioP2;P2;SDS_P1;SDS_P2;PMS_P1;PMS_P2;Temp;Humidity;BMP_temperature;BMP_pressure;BME280_temperature;BME280_humidity;BME280_pressure;Samples;Min_cycle;Max_cycle;Signal;HPM_P1;HPM_P2
2022/06/28 00:00:30;;;;;;;3.88;2.08;;;27.80;50.90;;;;;;4911398;29;20032;-47
2022/06/28 00:02:56;;;;;;;3.63;2.10;;;27.70;51.90;;;;;;4906416;29;20032;-46
2022/06/28 00:05:21;;;;;;;3.55;2.10;;;27.70;51.10;;;;;;4906709;29;20073;-46
2022/06/28 00:07:47;;;;;;;5.75;2.15;;;27.70;51.10;;;;;;4910359;29;20040;-46
2022/06/28 00:10:15;;;;;;;5.63;2.55;;;27.70;51.00;;;;;;4925060;29;20042;-47
2022/06/28 00:12:42;;;;;;;5.43;2.47;;;27.70;50.90;;;;;;4907058;29;20733;-45
2022/06/28 00:17:55;;;;;;;4.50;2.13;;;27.70;50.90;;;;;;4906032;29;20024;-47
2022/06/28 00:20:21;;;;;;;4.03;2.35;;;27.70;50.90;;;;;;4905705;29;20092;-46
2022/06/28 00:22:47;;;;;;;4.63;2.00;;;27.80;50.90;;;;;;4909247;29;20029;-47
2022/06/28 00:25:13;;;;;;;4.63;2.50;;;27.70;50.90;;;;;;4906561;29;20086;-46
2022/06/28 00:27:39;;;;;;;4.00;2.20;;;27.70;50.90;;;;;;4906089;29;20119;-46
2022/06/28 00:30:06;;;;;;;3.35;1.83;;;27.70;50.90;;;;;;4908789;29;20107;-46
2022/06/28 00:32:32;;;;;;;3.53;1.90;;;27.70;50.80;;;;;;4905610;29;20031;-45
2022/06/28 00:34:59;;;;;;;3.08;1.67;;;27.70;50.90;;;;;;4919958;29;20067;-46
2022/06/28 00:37:25;;;;;;;3.63;1.80;;;27.70;50.80;;;;;;4919801;29;21346;-45
2022/06/28 00:39:51;;;;;;;3.33;1.95;;;27.70;50.80;;;;;;4910638;29;20087;-46
2022/06/28 00:42:17;;;;;;;3.63;1.80;;;27.70;50.90;;;;;;4913937;29;20024;-46
2022/06/28 00:44:43;;;;;;;3.53;1.83;;;27.70;50.80;;;;;;4914594;29;20024;-46
2022/06/28 00:47:09;;;;;;;3.65;1.90;;;27.70;50.80;;;;;;4914573;29;20028;-45
2022/06/28 00:49:42;;;;;;;3.00;1.73;;;27.70;51.00;;;;;;4914469;29;20743;-45
2022/06/28 00:52:09;;;;;;;3.63;1.85;;;27.70;50.90;;;;;;4914455;29;20050;-47
2022/06/28 00:54:36;;;;;;;4.28;1.55;;;27.70;51.00;;;;;;4914222;29;20476;-46
2022/06/28 00:57:01;;;;;;;3.50;2.13;;;27.70;50.90;;;;;;4912734;29;20500;-47
2022/06/28 00:59:27;;;;;;;3.83;1.92;;;27.70;50.80;;;;;;4914952;29;20095;-48
2022/06/28 01:01:53;;;;;;;5.07;1.90;;;27.70;50.90;;;;;;4912214;29;20090;-49
2022/06/28 01:04:19;;;;;;;3.58;1.85;;;27.70;50.80;;;;;;4914791;29;20058;-46
2022/06/28 01:06:45;;;;;;;4.03;2.00;;;27.70;50.90;;;;;;4914652;29;20035;-46
2022/06/28 01:09:11;;;;;;;2.90;1.60;;;27.70;50.90;;;;;;4914584;29;20048;-46
2022/06/28 01:11:37;;;;;;;3.65;1.90;;;27.70;50.80;;;;;;4916229;29;20028;-48
2022/06/28 01:14:07;;;;;;;3.05;1.73;;;27.70;50.80;;;;;;4913005;29;20070;-47
2022/06/28 01:16:33;;;;;;;2.85;1.80;;;27.70;50.80;;;;;;4917990;29;20450;-46
2022/06/28 01:18:59;;;;;;;5.00;1.88;;;27.70;51.70;;;;;;4915054;29;20056;-47
2022/06/28 01:21:27;;;;;;;2.40;1.63;;;27.70;51.00;;;;;;4913564;29;20051;-46
2022/06/28 01:23:54;;;;;;;2.60;1.70;;;27.70;50.90;;;;;;4913566;29;20557;-46
2022/06/28 01:26:20;;;;;;;3.40;1.80;;;27.70;51.00;;;;;;4913900;29;20063;-47
2022/06/28 01:28:47;;;;;;;2.30;1.58;;;27.70;51.00;;;;;;4915010;29;20036;-47
2022/06/28 01:31:13;;;;;;;3.42;2.00;;;27.70;50.90;;;;;;4915964;29;20043;-46
2022/06/28 01:33:40;;;;;;;2.90;1.48;;;27.70;50.90;;;;;;4917754;29;20063;-47
2022/06/28 01:36:07;;;;;;;2.53;1.55;;;27.70;50.90;;;;;;4913178;29;20515;-47
2022/06/28 01:38:33;;;;;;;3.80;1.90;;;27.70;50.90;;;;;;4915020;29;20059;-47
2022/06/28 01:41:00;;;;;;;2.47;1.65;;;27.70;50.90;;;;;;4912840;29;20040;-48
2022/06/28 01:43:27;;;;;;;2.90;1.63;;;27.70;50.80;;;;;;4913870;29;20024;-47
2022/06/28 01:45:53;;;;;;;3.83;1.60;;;27.70;50.80;;;;;;4914184;29;20028;-48
2022/06/28 01:48:20;;;;;;;2.80;1.55;;;27.70;51.10;;;;;;4914230;29;20036;-48
2022/06/28 01:50:47;;;;;;;4.13;1.80;;;27.70;51.10;;;;;;4914610;29;20016;-48
2022/06/28 01:53:13;;;;;;;3.25;1.48;;;27.70;51.10;;;;;;4916758;29;20741;-46
2022/06/28 01:55:40;;;;;;;2.70;1.60;;;27.70;51.10;;;;;;4916387;29;20032;-46
2022/06/28 01:58:06;;;;;;;3.20;1.63;;;27.70;51.00;;;;;;4916937;29;20119;-46
2022/06/28 02:00:32;;;;;;;3.05;1.88;;;27.70;51.10;;;;;;4909849;29;20024;-46
2022/06/28 02:02:57;;;;;;;2.40;1.42;;;27.70;50.80;;;;;;4913209;29;20043;-47
2022/06/28 02:05:23;;;;;;;3.08;1.70;;;27.70;50.90;;;;;;4911546;29;20036;-47
2022/06/28 02:07:50;;;;;;;2.60;1.40;;;27.70;51.00;;;;;;4910069;29;20040;-46
2022/06/28 02:10:19;;;;;;;2.28;1.30;;;27.70;50.90;;;;;;4911401;29;20152;-46
2022/06/28 02:12:45;;;;;;;3.70;1.70;;;27.70;51.00;;;;;;4911917;29;20606;-48
2022/06/28 02:15:11;;;;;;;3.45;1.50;;;27.70;51.10;;;;;;4914182;29;20650;-48
2022/06/28 02:17:37;;;;;;;3.10;1.77;;;27.70;51.10;;;;;;4914479;29;20043;-46
2022/06/28 02:20:03;;;;;;;3.28;1.75;;;27.70;51.00;;;;;;4914333;29;20032;-47
2022/06/28 02:22:29;;;;;;;2.65;1.67;;;27.70;51.00;;;;;;4914985;29;20039;-46
2022/06/28 02:24:54;;;;;;;2.30;1.48;;;27.70;51.00;;;;;;4915813;29;20024;-46
2022/06/28 02:27:20;;;;;;;2.15;1.35;;;27.70;50.90;;;;;;4916108;29;20036;-45
2022/06/28 02:29:47;;;;;;;3.40;1.70;;;27.70;50.90;;;;;;4919307;29;20027;-46
2022/06/28 02:32:13;;;;;;;3.45;1.65;;;27.70;50.90;;;;;;4916448;29;20036;-46
2022/06/28 02:40:21;;;;;;;3.85;1.58;;;27.70;51.10;;;;;;4913357;29;20067;-46
2022/06/28 02:42:55;;;;;;;3.42;1.45;;;27.70;51.20;;;;;;4915727;29;20032;-45
2022/06/28 02:45:22;;;;;;;2.65;1.42;;;27.70;51.20;;;;;;4914462;29;20040;-47
2022/06/28 02:47:48;;;;;;;1.55;1.15;;;27.60;51.30;;;;;;4914058;29;20096;-47
2022/06/28 02:50:14;;;;;;;3.45;1.60;;;27.60;51.30;;;;;;4916260;29;20031;-46
2022/06/28 02:52:40;;;;;;;2.30;1.50;;;27.70;51.30;;;;;;4914594;29;20101;-45
2022/06/28 02:55:07;;;;;;;2.53;1.45;;;27.60;51.30;;;;;;4913334;29;20033;-46
2022/06/28 02:57:34;;;;;;;3.90;1.52;;;27.70;51.30;;;;;;4912828;29;20555;-47
2022/06/28 03:00:01;;;;;;;2.03;1.25;;;27.60;51.30;;;;;;4912801;29;20027;-46
2022/06/28 03:02:27;;;;;;;2.72;1.50;;;27.70;51.30;;;;;;4915818;29;20681;-46
2022/06/28 03:04:52;;;;;;;3.20;1.50;;;27.60;51.30;;;;;;4913902;29;20047;-46
2022/06/28 03:07:18;;;;;;;3.17;1.35;;;27.70;51.30;;;;;;4913831;29;20601;-46
2022/06/28 03:09:44;;;;;;;2.88;1.38;;;27.60;51.30;;;;;;4911794;29;20043;-46
2022/06/28 03:12:10;;;;;;;2.58;1.50;;;27.70;51.30;;;;;;4915950;29;20477;-46
2022/06/28 03:14:36;;;;;;;2.97;1.50;;;27.70;51.40;;;;;;4914717;29;20607;-46
2022/06/28 03:17:02;;;;;;;2.15;1.27;;;27.70;51.30;;;;;;4913238;29;20023;-46
2022/06/28 03:19:27;;;;;;;3.00;1.30;;;27.70;51.30;;;;;;4913094;29;20075;-46
2022/06/28 03:21:53;;;;;;;2.58;1.35;;;27.60;51.40;;;;;;4913180;29;20642;-46
2022/06/28 03:24:19;;;;;;;2.38;1.42;;;27.70;51.30;;;;;;4914045;29;20120;-45
2022/06/28 03:26:45;;;;;;;2.40;1.40;;;27.60;51.40;;;;;;4913707;29;20024;-46
2022/06/28 03:29:10;;;;;;;2.53;1.35;;;27.60;51.30;;;;;;4913420;29;20275;-46
2022/06/28 03:31:36;;;;;;;2.50;1.40;;;27.60;51.40;;;;;;4914616;29;20035;-48
2022/06/28 03:34:02;;;;;;;2.22;1.35;;;27.60;51.30;;;;;;4912646;29;20118;-48
2022/06/28 03:36:28;;;;;;;3.10;1.45;;;27.60;51.90;;;;;;4913037;29;20020;-48
2022/06/28 03:38:54;;;;;;;1.80;1.20;;;27.60;51.50;;;;;;4914246;29;20031;-46
2022/06/28 03:41:22;;;;;;;2.13;1.25;;;27.60;51.60;;;;;;4912888;29;20086;-48
2022/06/28 03:43:52;;;;;;;1.60;1.00;;;27.60;51.60;;;;;;4913414;29;20034;-48
2022/06/28 03:46:19;;;;;;;2.08;1.10;;;27.60;51.60;;;;;;4914488;29;20030;-47
2022/06/28 03:48:46;;;;;;;1.92;1.25;;;27.60;51.60;;;;;;4910716;29;20032;-47
2022/06/28 03:51:12;;;;;;;1.98;1.20;;;27.60;51.60;;;;;;4916371;29;20106;-47
2022/06/28 03:53:38;;;;;;;2.88;1.27;;;27.60;51.70;;;;;;4915934;29;20039;-48
2022/06/28 03:56:05;;;;;;;3.05;1.52;;;27.60;51.60;;;;;;4916274;29;20024;-48
2022/06/28 03:58:31;;;;;;;2.92;1.30;;;27.60;51.60;;;;;;4920107;29;20107;-48
2022/06/28 04:00:56;;;;;;;2.45;1.40;;;27.60;51.60;;;;;;4918572;29;20642;-48
2022/06/28 04:03:22;;;;;;;2.85;1.50;;;27.60;51.50;;;;;;4918179;29;20561;-48
2022/06/28 04:05:48;;;;;;;2.40;1.30;;;27.60;51.40;;;;;;4916472;29;20102;-48
2022/06/28 04:08:14;;;;;;;2.15;1.17;;;27.60;51.30;;;;;;4916743;29;20039;-46
2022/06/28 04:10:39;;;;;;;2.58;1.45;;;27.60;51.30;;;;;;4916301;29;20019;-46
2022/06/28 04:13:05;;;;;;;2.45;1.20;;;27.60;51.30;;;;;;4915850;29;20028;-46
2022/06/28 04:15:31;;;;;;;2.00;1.13;;;27.60;51.40;;;;;;4915184;29;20265;-46
2022/06/28 04:17:57;;;;;;;1.83;1.20;;;27.60;51.40;;;;;;4915470;29;20400;-46
2022/06/28 04:20:24;;;;;;;2.17;1.40;;;27.60;51.40;;;;;;4915222;29;20034;-46
2022/06/28 04:22:50;;;;;;;2.13;1.30;;;27.60;51.40;;;;;;4916963;29;20483;-46
2022/06/28 04:25:16;;;;;;;2.97;1.52;;;27.60;51.50;;;;;;4914414;29;20114;-48
2022/06/28 04:27:42;;;;;;;2.25;1.30;;;27.60;51.50;;;;;;4915888;29;20119;-48
2022/06/28 04:30:09;;;;;;;2.45;1.38;;;27.60;51.50;;;;;;4915946;29;20586;-46
2022/06/28 04:32:34;;;;;;;2.15;1.17;;;27.60;51.70;;;;;;4915165;29;20046;-46
2022/06/28 04:35:00;;;;;;;2.40;1.40;;;27.60;51.70;;;;;;4921065;29;20480;-46
2022/06/28 04:37:26;;;;;;;2.95;1.55;;;27.60;51.70;;;;;;4917347;29;20535;-46
2022/06/28 04:39:51;;;;;;;2.42;1.25;;;27.60;51.70;;;;;;4917842;29;20055;-46
2022/06/28 04:42:20;;;;;;;2.15;1.15;;;27.60;51.70;;;;;;4916596;29;20039;-47
2022/06/28 04:44:46;;;;;;;2.25;1.10;;;27.60;51.70;;;;;;4914532;29;20039;-46
2022/06/28 04:47:11;;;;;;;1.98;1.10;;;27.60;51.70;;;;;;4915819;29;20039;-47
2022/06/28 04:49:38;;;;;;;1.65;1.10;;;27.60;51.70;;;;;;4915328;29;20040;-48
2022/06/28 04:52:04;;;;;;;2.58;1.17;;;27.60;51.80;;;;;;4916306;29;20032;-49
2022/06/28 04:54:30;;;;;;;1.90;0.98;;;27.60;51.70;;;;;;4916485;29;20435;-47
2022/06/28 04:56:56;;;;;;;2.83;1.33;;;27.60;51.70;;;;;;4914795;29;20023;-47
2022/06/28 04:59:22;;;;;;;1.80;1.00;;;27.60;51.60;;;;;;4918296;29;20042;-48
2022/06/28 05:01:47;;;;;;;1.77;0.95;;;27.60;51.60;;;;;;4917278;29;20070;-48
2022/06/28 05:04:14;;;;;;;1.77;0.93;;;27.60;51.60;;;;;;4918036;29;20023;-46
2022/06/28 05:06:40;;;;;;;2.78;1.35;;;27.60;51.70;;;;;;4916029;29;20035;-46
2022/06/28 05:09:06;;;;;;;2.67;0.98;;;27.60;51.90;;;;;;4916555;29;20036;-45
2022/06/28 05:11:31;;;;;;;2.17;0.88;;;27.60;52.30;;;;;;4917070;29;20028;-45
2022/06/28 05:13:58;;;;;;;2.45;1.17;;;27.50;52.40;;;;;;4916909;29;20028;-44
2022/06/28 05:16:24;;;;;;;2.70;1.20;;;27.50;52.60;;;;;;4915798;29;20145;-45
2022/06/28 05:18:49;;;;;;;2.15;1.10;;;27.40;52.60;;;;;;4914926;29;20503;-46
2022/06/28 05:21:15;;;;;;;1.60;1.00;;;27.40;52.50;;;;;;4914506;29;20038;-45
2022/06/28 05:23:41;;;;;;;2.65;1.25;;;27.40;52.50;;;;;;4915474;29;20878;-45
2022/06/28 05:26:07;;;;;;;1.45;0.80;;;27.40;52.50;;;;;;4916186;29;20135;-46
2022/06/28 05:28:33;;;;;;;1.70;1.00;;;27.40;52.40;;;;;;4914207;29;20116;-47
2022/06/28 05:30:58;;;;;;;6.13;1.95;;;27.40;52.60;;;;;;4914364;29;20619;-45
2022/06/28 05:33:24;;;;;;;9.43;2.88;;;27.40;54.50;;;;;;4915826;29;20098;-52
2022/06/28 05:35:50;;;;;;;10.35;3.33;;;27.40;55.40;;;;;;4919330;29;20035;-48
2022/06/28 05:38:16;;;;;;;5.85;2.33;;;27.40;55.70;;;;;;4917364;29;20048;-47
2022/06/28 05:40:42;;;;;;;4.07;1.75;;;27.40;55.30;;;;;;4918167;29;20032;-47
2022/06/28 05:43:08;;;;;;;5.63;1.73;;;27.40;55.10;;;;;;4917007;29;20107;-47
2022/06/28 05:45:34;;;;;;;5.45;1.95;;;27.40;54.90;;;;;;4913894;29;20028;-46
2022/06/28 05:47:59;;;;;;;3.95;1.45;;;27.40;54.70;;;;;;4914159;29;20033;-45
2022/06/28 05:50:25;;;;;;;3.53;1.23;;;27.40;54.60;;;;;;4919953;29;20704;-44
2022/06/28 05:52:52;;;;;;;3.00;1.13;;;27.40;54.40;;;;;;4922886;29;20032;-49
2022/06/28 05:55:18;;;;;;;2.60;1.10;;;27.40;54.20;;;;;;4920950;29;20122;-49
2022/06/28 05:57:43;;;;;;;2.28;1.17;;;27.40;54.10;;;;;;4915659;29;20753;-48
2022/06/28 06:00:10;;;;;;;2.50;1.10;;;27.30;54.00;;;;;;4919101;29;20054;-49
2022/06/28 06:02:36;;;;;;;3.45;1.20;;;27.30;53.90;;;;;;4919300;29;20031;-49
2022/06/28 06:05:06;;;;;;;2.92;1.30;;;27.30;53.90;;;;;;4918090;29;20028;-48
2022/06/28 06:07:32;;;;;;;1.92;0.98;;;27.30;53.90;;;;;;4917627;29;20562;-48
2022/06/28 06:09:58;;;;;;;2.72;1.10;;;27.20;53.80;;;;;;4917434;29;20039;-49
2022/06/28 06:12:24;;;;;;;3.38;1.10;;;27.30;53.80;;;;;;4919562;29;20031;-47
2022/06/28 06:14:50;;;;;;;2.50;1.30;;;27.30;53.70;;;;;;4912754;29;20043;-47
2022/06/28 06:17:15;;;;;;;2.95;0.95;;;27.20;53.70;;;;;;4921430;29;20019;-48
2022/06/28 06:19:42;;;;;;;2.97;0.82;;;27.20;53.70;;;;;;4919147;29;20060;-48
2022/06/28 06:22:07;;;;;;;2.17;1.10;;;27.20;53.60;;;;;;4912700;29;20036;-48
2022/06/28 06:24:33;;;;;;;3.17;0.93;;;27.20;53.50;;;;;;4920994;29;20866;-48
2022/06/28 06:26:59;;;;;;;1.73;0.95;;;27.20;53.60;;;;;;4920463;29;20036;-52
2022/06/28 06:29:25;;;;;;;2.70;1.10;;;27.20;53.50;;;;;;4920147;29;20028;-47
2022/06/28 06:31:51;;;;;;;2.35;1.00;;;27.20;53.90;;;;;;4919081;29;20035;-49
2022/06/28 06:34:17;;;;;;;2.88;1.15;;;27.20;53.90;;;;;;4920054;29;20099;-47
2022/06/28 06:36:45;;;;;;;5.38;1.35;;;27.20;53.70;;;;;;4917157;29;20055;-48
2022/06/28 06:39:11;;;;;;;2.50;1.33;;;27.20;53.80;;;;;;4917634;29;20039;-48
2022/06/28 06:41:36;;;;;;;2.72;1.30;;;27.20;53.70;;;;;;4919144;29;20032;-49
2022/06/28 06:44:02;;;;;;;2.25;1.00;;;27.20;53.60;;;;;;4913354;29;20761;-50
2022/06/28 06:46:28;;;;;;;2.67;1.33;;;27.20;53.30;;;;;;4908644;29;20044;-49
2022/06/28 06:48:54;;;;;;;2.55;1.00;;;27.20;53.10;;;;;;4908120;29;20080;-49
2022/06/28 06:51:20;;;;;;;2.30;0.95;;;27.20;52.80;;;;;;4908416;29;20726;-48
2022/06/28 06:53:46;;;;;;;2.42;1.00;;;27.20;52.60;;;;;;4918753;29;20031;-49
2022/06/28 06:56:12;;;;;;;2.58;0.90;;;27.20;52.50;;;;;;4927720;29;20036;-48
2022/06/28 06:58:38;;;;;;;1.77;0.95;;;27.20;52.50;;;;;;4926636;29;20369;-49
2022/06/28 07:01:04;;;;;;;2.35;1.15;;;27.20;52.40;;;;;;4927569;29;20571;-49
2022/06/28 07:03:30;;;;;;;2.55;1.05;;;27.20;52.40;;;;;;4927205;29;20167;-49
2022/06/28 07:05:56;;;;;;;1.75;0.80;;;27.20;52.40;;;;;;4927898;29;20111;-49
2022/06/28 07:08:21;;;;;;;2.47;1.13;;;27.20;52.40;;;;;;4926351;29;20079;-49
2022/06/28 07:10:47;;;;;;;4.05;1.35;;;27.20;52.40;;;;;;4941497;29;20039;-49
2022/06/28 07:13:13;;;;;;;3.35;1.10;;;27.20;52.50;;;;;;4927703;29;20744;-48
2022/06/28 07:15:39;;;;;;;2.58;1.20;;;27.20;52.50;;;;;;4919124;29;20635;-48
2022/06/28 07:18:05;;;;;;;2.90;1.33;;;27.20;52.50;;;;;;4908083;29;20036;-49
2022/06/28 07:20:31;;;;;;;2.35;1.15;;;27.30;52.40;;;;;;4908439;29;20119;-49
2022/06/28 07:22:56;;;;;;;1.77;0.90;;;27.30;52.40;;;;;;4912201;29;20174;-48
2022/06/28 07:25:22;;;;;;;2.20;0.90;;;27.30;52.50;;;;;;4926256;29;20527;-50
2022/06/28 07:27:48;;;;;;;1.85;0.90;;;27.30;52.50;;;;;;4926508;29;20036;-50
2022/06/28 07:30:13;;;;;;;2.08;0.93;;;27.30;52.40;;;;;;4927129;29;20020;-48
2022/06/28 07:32:39;;;;;;;1.77;0.90;;;27.30;52.50;;;;;;4927455;29;20027;-50
2022/06/28 07:35:06;;;;;;;2.78;1.02;;;27.30;52.40;;;;;;4926514;29;20562;-49
2022/06/28 07:37:32;;;;;;;1.83;0.95;;;27.30;52.40;;;;;;4926890;29;20043;-48
2022/06/28 07:39:57;;;;;;;2.45;1.00;;;27.30;52.40;;;;;;4926407;29;20553;-49
2022/06/28 07:42:23;;;;;;;2.47;1.00;;;27.30;52.40;;;;;;4927038;29;20592;-49
2022/06/28 07:44:49;;;;;;;2.25;0.82;;;27.40;52.30;;;;;;4927203;29;20039;-49
2022/06/28 07:47:15;;;;;;;1.67;0.90;;;27.30;52.30;;;;;;4925978;29;20129;-49
2022/06/28 07:52:34;;;;;;;1.88;1.00;;;27.40;52.20;;;;;;4926835;29;20079;-49
2022/06/28 07:55:00;;;;;;;2.20;0.80;;;27.30;52.30;;;;;;4922617;29;20596;-49
2022/06/28 07:57:27;;;;;;;1.80;0.77;;;27.40;52.30;;;;;;4926676;29;20492;-48
2022/06/28 07:59:53;;;;;;;1.02;0.68;;;27.40;52.20;;;;;;4925853;29;20023;-49
2022/06/28 08:02:19;;;;;;;1.58;0.80;;;27.40;52.30;;;;;;4926918;29;20036;-49
2022/06/28 08:04:46;;;;;;;1.38;0.75;;;27.40;52.30;;;;;;4926424;29;20062;-48
2022/06/28 08:07:11;;;;;;;1.98;1.00;;;27.40;52.30;;;;;;4926148;29;20499;-49
2022/06/28 08:09:37;;;;;;;1.67;0.70;;;27.40;52.30;;;;;;4925632;29;20058;-49
2022/06/28 08:12:04;;;;;;;2.65;0.70;;;27.40;52.30;;;;;;4925635;29;20039;-47
2022/06/28 08:14:30;;;;;;;2.05;0.93;;;27.40;52.30;;;;;;4926456;29;20656;-47
2022/06/28 08:16:56;;;;;;;1.58;0.77;;;27.40;52.30;;;;;;4921527;29;20112;-47
2022/06/28 08:19:22;;;;;;;2.30;0.98;;;27.40;52.20;;;;;;4907600;29;20527;-47
2022/06/28 08:21:49;;;;;;;1.90;0.85;;;27.40;52.90;;;;;;4912830;29;20031;-47
2022/06/28 08:24:15;;;;;;;2.08;0.82;;;27.40;52.30;;;;;;4908111;29;20028;-48
2022/06/28 08:26:44;;;;;;;2.17;0.98;;;27.40;52.30;;;;;;4926460;29;20031;-46
2022/06/28 08:29:16;;;;;;;1.63;0.80;;;27.40;52.20;;;;;;4925868;29;20036;-47
2022/06/28 08:31:43;;;;;;;2.08;0.80;;;27.40;52.20;;;;;;4925847;29;20396;-47
2022/06/28 08:34:09;;;;;;;1.92;0.85;;;27.40;52.10;;;;;;4925951;29;20035;-47
2022/06/28 08:36:35;;;;;;;1.67;0.70;;;27.50;52.20;;;;;;4925810;29;20031;-47
2022/06/28 08:39:03;;;;;;;1.80;0.80;;;27.40;52.00;;;;;;4925025;29;20030;-47
2022/06/28 08:41:32;;;;;;;1.50;0.80;;;27.50;52.00;;;;;;4925817;29;20106;-47
2022/06/28 08:43:57;;;;;;;1.58;0.95;;;27.50;52.10;;;;;;4925993;29;20032;-47
2022/06/28 08:46:26;;;;;;;1.58;0.82;;;27.50;52.00;;;;;;4925587;29;20040;-47
2022/06/28 08:49:14;;;;;;;1.65;0.70;;;27.50;52.00;;;;;;4925248;29;20059;-47
2022/06/28 08:51:41;;;;;;;2.25;1.15;;;27.50;52.00;;;;;;4925480;29;20054;-49
2022/06/28 08:54:07;;;;;;;1.42;0.70;;;27.50;52.00;;;;;;4924729;29;20024;-49
2022/06/28 08:56:34;;;;;;;1.63;0.90;;;27.50;52.10;;;;;;4925891;29;20504;-46
2022/06/28 08:59:00;;;;;;;1.25;0.73;;;27.50;52.00;;;;;;4924999;29;20038;-47
2022/06/28 09:01:26;;;;;;;1.55;0.90;;;27.50;52.10;;;;;;4925799;29;20036;-47
2022/06/28 09:03:54;;;;;;;1.42;0.68;;;27.50;51.90;;;;;;4925787;29;20070;-47
2022/06/28 09:06:23;;;;;;;2.00;0.80;;;27.50;51.90;;;;;;4925115;29;20210;-47
2022/06/28 09:08:49;;;;;;;1.45;0.80;;;27.50;52.00;;;;;;4924727;29;20027;-47
2022/06/28 09:11:15;;;;;;;1.48;0.75;;;27.50;52.00;;;;;;4925305;29;20039;-47
2022/06/28 09:13:41;;;;;;;1.38;0.70;;;27.50;52.00;;;;;;4925674;29;20027;-47
2022/06/28 09:16:07;;;;;;;1.98;0.95;;;27.50;52.00;;;;;;4925389;29;20039;-48
2022/06/28 09:18:36;;;;;;;1.92;0.73;;;27.50;52.00;;;;;;4925244;29;20016;-47
2022/06/28 09:21:06;;;;;;;2.17;0.88;;;27.50;52.00;;;;;;4925513;29;20031;-47
2022/06/28 09:23:34;;;;;;;1.73;0.80;;;27.60;51.90;;;;;;4925394;29;20035;-47
2022/06/28 09:26:11;;;;;;;1.77;0.70;;;27.60;51.90;;;;;;4929363;29;20766;-47
2022/06/28 09:28:43;;;;;;;2.85;1.10;;;27.60;51.90;;;;;;4928778;29;20027;-46
2022/06/28 09:31:23;;;;;;;1.67;0.85;;;27.60;51.80;;;;;;4929724;29;20087;-47
2022/06/28 09:34:07;;;;;;;1.95;0.70;;;27.60;51.80;;;;;;4927572;29;20123;-47
2022/06/28 09:36:38;;;;;;;2.15;0.80;;;27.60;51.80;;;;;;4929489;29;20413;-47
2022/06/28 09:39:28;;;;;;;1.80;0.82;;;27.60;51.80;;;;;;4928367;29;20023;-47
2022/06/28 09:41:55;;;;;;;1.02;0.68;;;27.60;51.80;;;;;;4928815;29;20016;-47
2022/06/28 09:44:29;;;;;;;1.42;0.73;;;27.60;51.80;;;;;;4929296;29;20027;-46
2022/06/28 09:46:57;;;;;;;1.35;0.70;;;27.60;51.80;;;;;;4928441;29;20058;-47
2022/06/28 09:49:30;;;;;;;1.90;0.82;;;27.60;51.80;;;;;;4928841;29;20074;-47
2022/06/28 09:52:00;;;;;;;1.67;0.60;;;27.60;51.90;;;;;;4928945;29;20063;-47
2022/06/28 09:54:27;;;;;;;2.80;0.98;;;27.60;51.80;;;;;;4927895;29;20120;-47
2022/06/28 09:56:56;;;;;;;1.95;0.80;;;27.60;51.80;;;;;;4928965;29;20035;-47
2022/06/28 09:59:24;;;;;;;1.05;0.75;;;27.60;51.80;;;;;;4928616;29;20035;-47
2022/06/28 10:01:52;;;;;;;1.50;0.88;;;27.60;51.80;;;;;;4928798;29;20083;-47
2022/06/28 10:04:19;;;;;;;1.58;0.75;;;27.60;51.70;;;;;;4928590;29;20039;-47
2022/06/28 10:06:45;;;;;;;1.30;0.70;;;27.60;51.80;;;;;;4928797;29;20462;-48
2022/06/28 10:09:11;;;;;;;1.38;0.80;;;27.60;51.80;;;;;;4927953;29;20036;-47
2022/06/28 10:17:39;;;;;;;1.30;0.70;;;27.70;51.60;;;;;;4928289;29;20172;-47
2022/06/28 10:20:08;;;;;;;1.63;0.77;;;27.70;51.60;;;;;;4928865;29;20036;-46
2022/06/28 10:22:34;;;;;;;2.67;0.80;;;27.60;51.70;;;;;;4928998;29;20388;-47
2022/06/28 10:25:02;;;;;;;1.15;0.70;;;27.70;51.60;;;;;;4927371;29;20032;-47
2022/06/28 10:27:29;;;;;;;1.50;0.80;;;27.70;51.40;;;;;;4928382;29;20091;-47
2022/06/28 10:30:05;;;;;;;1.40;0.70;;;27.60;51.50;;;;;;4928134;29;20038;-47
2022/06/28 10:32:47;;;;;;;0.98;0.50;;;27.70;51.50;;;;;;4928513;29;20032;-47
2022/06/28 10:35:31;;;;;;;2.17;1.00;;;27.70;51.60;;;;;;4927720;29;20032;-47
2022/06/28 10:38:08;;;;;;;1.40;0.80;;;27.70;51.60;;;;;;4927663;29;20035;-47
2022/06/28 10:40:49;;;;;;;1.90;1.00;;;27.70;51.60;;;;;;4927545;29;20042;-47
2022/06/28 10:43:44;;;;;;;1.17;0.57;;;27.70;51.60;;;;;;4927761;29;20023;-47
2022/06/28 10:46:11;;;;;;;1.52;0.70;;;27.70;51.50;;;;;;4928343;29;20081;-47
2022/06/28 10:49:02;;;;;;;1.25;0.60;;;27.70;51.60;;;;;;4927287;29;20047;-46
2022/06/28 10:51:28;;;;;;;1.58;0.77;;;27.70;51.60;;;;;;4922982;29;20592;-48
2022/06/28 10:54:06;;;;;;;1.27;0.68;;;27.70;51.60;;;;;;4925162;29;20039;-47
2022/06/28 10:56:48;;;;;;;1.38;0.70;;;27.70;51.60;;;;;;4917065;29;20020;-48
2022/06/28 10:59:15;;;;;;;1.05;0.60;;;27.70;51.50;;;;;;4927516;29;20027;-47
2022/06/28 11:01:44;;;;;;;1.80;0.80;;;27.70;51.60;;;;;;4911794;29;20047;-47
2022/06/28 11:04:18;;;;;;;2.10;0.82;;;27.70;51.50;;;;;;4908737;29;20028;-46
2022/06/28 11:06:55;;;;;;;1.25;0.70;;;27.70;51.60;;;;;;4908606;29;20032;-47
2022/06/28 11:09:39;;;;;;;1.38;0.70;;;27.70;51.50;;;;;;4914846;29;20032;-47
2022/06/28 11:12:12;;;;;;;1.15;0.70;;;27.70;51.50;;;;;;4926905;29;20089;-47
2022/06/28 11:14:58;;;;;;;1.58;0.77;;;27.70;51.50;;;;;;4926309;29;20543;-47
2022/06/28 11:17:28;;;;;;;1.02;0.60;;;27.70;51.50;;;;;;4926901;29;20070;-48
2022/06/28 11:19:57;;;;;;;1.75;0.75;;;27.70;51.50;;;;;;4927366;29;20043;-48
2022/06/28 11:22:34;;;;;;;1.67;0.80;;;27.70;51.40;;;;;;4927593;29;20247;-47
2022/06/28 11:25:02;;;;;;;1.08;0.60;;;27.80;51.40;;;;;;4925260;29;20391;-47
2022/06/28 11:27:29;;;;;;;1.80;0.80;;;27.80;51.40;;;;;;4926119;29;20044;-47
2022/06/28 11:30:01;;;;;;;0.95;0.57;;;27.70;51.50;;;;;;4926975;29;20103;-48
2022/06/28 11:32:36;;;;;;;1.95;0.80;;;27.80;51.50;;;;;;4927217;29;20024;-47
2022/06/28 11:35:04;;;;;;;1.52;0.70;;;27.80;51.50;;;;;;4927054;29;20040;-47
2022/06/28 11:37:51;;;;;;;1.63;0.82;;;27.80;51.50;;;;;;4926777;29;20440;-47
2022/06/28 11:40:19;;;;;;;1.27;0.55;;;27.80;51.60;;;;;;4926654;29;20035;-47
2022/06/28 11:42:46;;;;;;;0.93;0.50;;;27.80;51.50;;;;;;4925436;29;20103;-47
2022/06/28 11:45:14;;;;;;;1.42;0.73;;;27.80;51.50;;;;;;4926665;29;20047;-47
2022/06/28 11:47:44;;;;;;;1.45;0.73;;;27.80;51.50;;;;;;4925742;29;20038;-47
2022/06/28 11:50:17;;;;;;;2.67;0.80;;;27.80;51.50;;;;;;4926119;29;20039;-47
2022/06/28 11:52:48;;;;;;;1.00;0.55;;;27.80;51.50;;;;;;4926931;29;20066;-47
2022/06/28 11:55:15;;;;;;;1.55;0.60;;;27.90;51.50;;;;;;4924545;29;20032;-46
2022/06/28 11:57:41;;;;;;;1.15;0.70;;;27.80;51.40;;;;;;4926389;29;20028;-47
2022/06/28 12:00:07;;;;;;;1.25;0.55;;;27.90;51.40;;;;;;4925538;29;20752;-47
2022/06/28 12:02:51;;;;;;;1.33;0.70;;;27.90;51.50;;;;;;4926666;29;20027;-48
2022/06/28 12:05:35;;;;;;;1.27;0.68;;;27.90;51.50;;;;;;4925789;29;20036;-47
2022/06/28 12:08:02;;;;;;;1.25;0.65;;;27.90;51.50;;;;;;4926273;29;20043;-47
2022/06/28 12:10:33;;;;;;;0.88;0.60;;;27.90;51.50;;;;;;4925997;29;20043;-47
2022/06/28 12:13:09;;;;;;;0.93;0.50;;;27.90;51.50;;;;;;4926298;29;20036;-47
2022/06/28 12:15:34;;;;;;;1.45;0.70;;;27.90;51.50;;;;;;4926790;29;20032;-47
2022/06/28 12:18:03;;;;;;;1.02;0.60;;;27.90;51.40;;;;;;4924402;29;20067;-47
2022/06/28 12:20:31;;;;;;;0.98;0.47;;;27.90;51.40;;;;;;4926277;29;20043;-47
2022/06/28 12:23:05;;;;;;;1.30;0.68;;;27.90;51.40;;;;;;4926631;29;20492;-48
2022/06/28 12:25:32;;;;;;;1.70;0.85;;;27.90;51.40;;;;;;4925145;29;20047;-47
2022/06/28 12:27:59;;;;;;;1.10;0.65;;;28.00;51.80;;;;;;4926178;29;20076;-48
2022/06/28 12:30:25;;;;;;;1.33;0.65;;;28.00;51.80;;;;;;4926132;29;20024;-47
2022/06/28 12:32:52;;;;;;;1.17;0.70;;;28.00;51.80;;;;;;4926086;29;20041;-47
2022/06/28 12:35:19;;;;;;;1.33;0.63;;;28.00;51.80;;;;;;4926122;29;20039;-47
2022/06/28 12:37:46;;;;;;;1.75;0.68;;;28.00;51.70;;;;;;4924928;29;20377;-47
2022/06/28 12:40:13;;;;;;;1.38;0.73;;;28.10;51.70;;;;;;4925552;29;20039;-47
2022/06/28 12:42:39;;;;;;;1.15;0.63;;;28.10;51.70;;;;;;4926309;29;20038;-47
2022/06/28 12:45:05;;;;;;;1.23;0.70;;;28.10;51.60;;;;;;4925853;29;20669;-47
2022/06/28 12:47:36;;;;;;;1.25;0.75;;;28.10;51.60;;;;;;4925863;29;20649;-47
2022/06/28 12:50:05;;;;;;;2.78;0.98;;;28.10;51.50;;;;;;4925413;29;20035;-47
2022/06/28 12:52:32;;;;;;;1.60;0.63;;;28.10;51.50;;;;;;4925949;29;20032;-47
2022/06/28 12:54:58;;;;;;;1.63;0.98;;;28.10;51.50;;;;;;4925501;29;20035;-47
2022/06/28 12:57:25;;;;;;;1.83;0.70;;;28.10;51.40;;;;;;4924544;29;20091;-47
2022/06/28 12:59:51;;;;;;;1.05;0.60;;;28.10;51.40;;;;;;4926108;29;20019;-47
2022/06/28 13:02:17;;;;;;;0.85;0.60;;;28.20;51.30;;;;;;4925739;29;20032;-47
2022/06/28 13:04:47;;;;;;;1.25;0.50;;;28.20;51.20;;;;;;4925578;29;20032;-47
2022/06/28 13:07:16;;;;;;;1.30;0.60;;;28.20;51.20;;;;;;4925653;29;20111;-48